地図

経路データ

SID SEASON NUMBER BASIN SUBBASIN NAME ISO_TIME NATURE LAT LON WMO_WIND WMO_PRES WMO_AGENCY TRACK_TYPE DIST2LAND LANDFALL IFLAG USA_AGENCY USA_ATCF_ID USA_LAT USA_LON USA_RECORD USA_STATUS USA_WIND USA_PRES USA_SSHS USA_R34_NE USA_R34_SE USA_R34_SW USA_R34_NW USA_R50_NE USA_R50_SE USA_R50_SW USA_R50_NW USA_R64_NE USA_R64_SE USA_R64_SW USA_R64_NW USA_POCI USA_ROCI USA_RMW USA_EYE TOKYO_LAT TOKYO_LON TOKYO_GRADE TOKYO_WIND TOKYO_PRES TOKYO_R50_DIR TOKYO_R50_LONG TOKYO_R50_SHORT TOKYO_R30_DIR TOKYO_R30_LONG TOKYO_R30_SHORT TOKYO_LAND CMA_LAT CMA_LON CMA_CAT CMA_WIND CMA_PRES HKO_LAT HKO_LON HKO_CAT HKO_WIND HKO_PRES NEWDELHI_LAT NEWDELHI_LON NEWDELHI_GRADE NEWDELHI_WIND NEWDELHI_PRES NEWDELHI_CI NEWDELHI_DP NEWDELHI_POCI REUNION_LAT REUNION_LON REUNION_TYPE REUNION_WIND REUNION_PRES REUNION_TNUM REUNION_CI REUNION_RMW REUNION_R34_NE REUNION_R34_SE REUNION_R34_SW REUNION_R34_NW REUNION_R50_NE REUNION_R50_SE REUNION_R50_SW REUNION_R50_NW REUNION_R64_NE REUNION_R64_SE REUNION_R64_SW REUNION_R64_NW BOM_LAT BOM_LON BOM_TYPE BOM_WIND BOM_PRES BOM_TNUM BOM_CI BOM_RMW BOM_R34_NE BOM_R34_SE BOM_R34_SW BOM_R34_NW BOM_R50_NE BOM_R50_SE BOM_R50_SW BOM_R50_NW BOM_R64_NE BOM_R64_SE BOM_R64_SW BOM_R64_NW BOM_ROCI BOM_POCI BOM_EYE BOM_POS_METHOD BOM_PRES_METHOD NADI_LAT NADI_LON NADI_CAT NADI_WIND NADI_PRES WELLINGTON_LAT WELLINGTON_LON WELLINGTON_WIND WELLINGTON_PRES DS824_LAT DS824_LON DS824_STAGE DS824_WIND DS824_PRES TD9636_LAT TD9636_LON TD9636_STAGE TD9636_WIND TD9636_PRES TD9635_LAT TD9635_LON TD9635_WIND TD9635_PRES TD9635_ROCI NEUMANN_LAT NEUMANN_LON NEUMANN_CLASS NEUMANN_WIND NEUMANN_PRES MLC_LAT MLC_LON MLC_CLASS MLC_WIND MLC_PRES USA_GUST BOM_GUST BOM_GUST_PER REUNION_GUST REUNION_GUST_PER USA_SEAHGT USA_SEARAD_NE USA_SEARAD_SE USA_SEARAD_SW USA_SEARAD_NW STORM_SPEED STORM_DIR
1932201N17128 1932 35 WP MM NOT_NAMED 1932-07-19 10:00:00 NR 16.5000 127.500 main 442 426 __________O___ -1 16.5000 127.500 2 7 278
1932201N17128 1932 35 WP MM NOT_NAMED 1932-07-19 12:00:00 NR 16.5339 127.260 main 426 403 __________P___ -1 16.5339 127.260 2 7 279
1932201N17128 1932 35 WP MM NOT_NAMED 1932-07-19 15:00:00 NR 16.5907 126.890 main 403 381 __________P___ -1 16.5907 126.890 2 7 280
1932201N17128 1932 35 WP MM NOT_NAMED 1932-07-19 18:00:00 NR 16.6629 126.495 main 383 358 __________P___ -1 16.6629 126.495 2 8 282
1932201N17128 1932 35 WP MM NOT_NAMED 1932-07-19 21:00:00 NR 16.7603 126.058 main 368 357 __________P___ -1 16.7603 126.058 2 9 284
1932201N17128 1932 35 WP MM NOT_NAMED 1932-07-19 22:00:00 NR 16.8000 125.900 main 357 329 __________O___ -1 16.8000 125.900 3 10 285
1932201N17128 1932 35 WP MM NOT_NAMED 1932-07-20 00:00:00 NR 16.8908 125.565 main 329 265 __________P___ -1 16.8908 125.565 3 10 286
1932201N17128 1932 35 WP MM NOT_NAMED 1932-07-20 03:00:00 NR 17.0461 125.025 main 265 213 __________P___ -1 17.0461 125.025 3 11 287
1932201N17128 1932 35 WP MM NOT_NAMED 1932-07-20 06:00:00 NR 17.2075 124.458 main 213 152 __________P___ -1 17.2075 124.458 3 11 286
1932201N17128 1932 35 WP MM NOT_NAMED 1932-07-20 09:00:00 NR 17.3564 123.887 main 155 135 __________P___ -1 17.3564 123.887 3 11 285
1932201N17128 1932 35 WP MM NOT_NAMED 1932-07-20 10:00:00 NR 17.4000 123.700 main 135 105 __________O___ -1 17.4000 123.700 4 10 281
1932201N17128 1932 35 WP MM NOT_NAMED 1932-07-20 12:00:00 NR 17.4556 123.375 main 108 57 __________P___ -1 17.4556 123.375 4 9 279
1932201N17128 1932 35 WP MM NOT_NAMED 1932-07-20 15:00:00 NR 17.5202 122.895 main 57 30 __________P___ -1 17.5202 122.895 4 10 278
1932201N17128 1932 35 WP MM NOT_NAMED 1932-07-20 18:00:00 NR 17.5825 122.388 main 30 0 __________P___ -1 17.5825 122.388 4 10 278
1932201N17128 1932 35 WP MM NOT_NAMED 1932-07-20 21:00:00 NR 17.6645 121.813 main 0 0 __________P___ -1 17.6645 121.813 4 11 279
1932201N17128 1932 35 WP MM NOT_NAMED 1932-07-20 22:00:00 NR 17.7000 121.600 main 0 0 __________O___ -1 17.7000 121.600 4 13 282
1932201N17128 1932 35 WP MM NOT_NAMED 1932-07-21 00:00:00 NR 17.7993 121.124 main 0 0 __________P___ -1 17.7993 121.124 4 15 283
1932201N17128 1932 35 WP MM NOT_NAMED 1932-07-21 03:00:00 NR 17.9733 120.334 main 21 21 __________P___ -1 17.9733 120.334 4 16 283
1932201N17128 1932 35 WP MM NOT_NAMED 1932-07-21 06:00:00 NR 18.1608 119.481 main 106 116 __________P___ -1 18.1608 119.481 4 17 283
1932201N17128 1932 35 WP MM NOT_NAMED 1932-07-21 09:00:00 NR 18.3433 118.597 main 196 210 __________P___ -1 18.3433 118.597 4 17 282
1932201N17128 1932 35 WP MM NOT_NAMED 1932-07-21 10:00:00 NR 18.4000 118.300 main 229 229 __________O___ -1 18.4000 118.300 4 18 280
1932201N17128 1932 35 WP MM NOT_NAMED 1932-07-21 12:00:00 NR 18.4927 117.686 main 292 302 __________P___ -1 18.4927 117.686 4 18 278
1932201N17128 1932 35 WP MM NOT_NAMED 1932-07-21 15:00:00 NR 18.6191 116.752 main 386 396 __________P___ -1 18.6191 116.752 4 18 278
1932201N17128 1932 35 WP MM NOT_NAMED 1932-07-21 18:00:00 NR 18.7377 115.851 main 435 387 __________P___ -1 18.7377 115.851 4 16 278
1932201N17128 1932 35 WP MM NOT_NAMED 1932-07-21 21:00:00 NR 18.8579 115.040 main 387 383 __________P___ -1 18.8579 115.040 4 15 279
1932201N17128 1932 35 WP MM NOT_NAMED 1932-07-21 22:00:00 NR 18.9000 114.800 main 383 355 __________O___ -1 18.9000 114.800 4 12 283
1932201N17128 1932 35 WP MM NOT_NAMED 1932-07-22 00:00:00 NR 18.9949 114.402 main 355 309 __________P___ -1 18.9949 114.402 4 11 286
1932201N17128 1932 35 WP MM NOT_NAMED 1932-07-22 03:00:00 NR 19.1453 113.907 main 309 264 __________P___ -1 19.1453 113.907 4 9 289
1932201N17128 1932 35 WP MM NOT_NAMED 1932-07-22 06:00:00 NR 19.2997 113.478 main 264 220 __________P___ -1 19.2997 113.478 4 9 291
1932201N17128 1932 35 WP MM NOT_NAMED 1932-07-22 09:00:00 NR 19.4513 113.052 main 220 199 __________P___ -1 19.4513 113.052 4 9 290
1932201N17128 1932 35 WP MM NOT_NAMED 1932-07-22 10:00:00 NR 19.5000 112.900 main 199 157 __________O___ -1 19.5000 112.900 4 10 287
1932201N17128 1932 35 WP MM NOT_NAMED 1932-07-22 12:00:00 NR 19.5969 112.534 main 157 105 __________P___ -1 19.5969 112.534 4 11 285
1932201N17128 1932 35 WP MM NOT_NAMED 1932-07-22 15:00:00 NR 19.7362 111.960 main 105 47 __________P___ -1 19.7362 111.960 4 11 284
1932201N17128 1932 35 WP MM NOT_NAMED 1932-07-22 18:00:00 NR 19.8625 111.373 main 52 0 __________P___ -1 19.8625 111.373 4 11 282
1932201N17128 1932 35 WP MM NOT_NAMED 1932-07-22 21:00:00 NR 19.9696 110.790 main 0 0 __________P___ -1 19.9696 110.790 4 11 281
1932201N17128 1932 35 WP MM NOT_NAMED 1932-07-22 22:00:00 NR 20.0000 110.600 main 0 0 __________O___ -1 20.0000 110.600 4 10 279
1932201N17128 1932 35 WP MM NOT_NAMED 1932-07-23 00:00:00 NR 20.0525 110.241 main 11 11 __________P___ -1 20.0525 110.241 4 10 278
1932201N17128 1932 35 WP MM NOT_NAMED 1932-07-23 03:00:00 NR 20.1128 109.715 main 22 22 __________P___ -1 20.1128 109.715 4 10 276
1932201N17128 1932 35 WP MM NOT_NAMED 1932-07-23 06:00:00 NR 20.1566 109.197 main 45 45 __________P___ -1 20.1566 109.197 4 10 275
1932201N17128 1932 35 WP MM NOT_NAMED 1932-07-23 09:00:00 NR 20.1901 108.676 main 76 84 __________P___ -1 20.1901 108.676 4 10 274
1932201N17128 1932 35 WP MM NOT_NAMED 1932-07-23 10:00:00 NR 20.2000 108.500 main 88 88 __________O___ -1 20.2000 108.500 4 10 273
1932201N17128 1932 35 WP MM NOT_NAMED 1932-07-23 12:00:00 NR 20.2190 108.144 main 109 88 __________P___ -1 20.2190 108.144 4 10 273
1932201N17128 1932 35 WP MM NOT_NAMED 1932-07-23 15:00:00 NR 20.2457 107.599 main 88 41 __________P___ -1 20.2457 107.599 4 10 273
1932201N17128 1932 35 WP MM NOT_NAMED 1932-07-23 18:00:00 NR 20.2703 107.045 main 41 0 __________P___ -1 20.2703 107.045 4 10 273
1932201N17128 1932 35 WP MM NOT_NAMED 1932-07-23 21:00:00 NR 20.2929 106.487 main 0 0 __________P___ -1 20.2929 106.487 4 11 272
1932201N17128 1932 35 WP MM NOT_NAMED 1932-07-23 22:00:00 NR 20.3000 106.300 main 0 __________O___ -1 20.3000 106.300 2 11 272

デジタル台風データ・検索

IBTrACS Databaseについて

本データベースは、米国NOAAが公開する1842年以降の世界の熱帯低気圧のベストトラックデータアーカイブInternational Best Track Archive for Climate Stewardship (IBTrACS)を、ウェブで閲覧しやすい形式に変換したものです。

最終更新日:2021-10-21